| time (UTC) | temp F | wind direction | speed MPH | gust MPH | rain 1hr in | rain 24hr in | rain mn in | humidity % | barometer mb |
| 20260510220450 | 67 | 118 | 9.0 | 17.0 | 0.00 | 0.00 | 0.00 | 34 | 1023.0 |
| 20260510215946 | 66 | 175 | 5.0 | 11.0 | 0.00 | 0.00 | 0.00 | 34 | 1023.3 |
| 20260510215444 | 68 | 119 | 6.0 | 11.0 | 0.00 | 0.00 | 0.00 | 33 | 1023.1 |
| 20260510214942 | 67 | 141 | 6.0 | 23.0 | 0.00 | 0.00 | 0.00 | 33 | 1022.9 |
| 20260510214438 | 68 | 98 | 9.0 | 15.0 | 0.00 | 0.00 | 0.00 | 33 | 1023.3 |
| 20260510213935 | 69 | 189 | 7.0 | 13.0 | 0.00 | 0.00 | 0.00 | 30 | 1023.1 |
| 20260510213432 | 69 | 111 | 5.0 | 10.0 | 0.00 | 0.00 | 0.00 | 31 | 1023.4 |
| 20260510212928 | 70 | 162 | 7.0 | 15.0 | 0.00 | 0.00 | 0.00 | 31 | 1023.4 |
| 20260510212426 | 70 | 72 | 5.0 | 13.0 | 0.00 | 0.00 | 0.00 | 30 | 1023.3 |
| 20260510211922 | 69 | 113 | 5.0 | 13.0 | 0.00 | 0.00 | 0.00 | 31 | 1023.4 |
| 20260510211419 | 68 | 154 | 6.0 | 11.0 | 0.00 | 0.00 | 0.00 | 32 | 1023.0 |
| 20260510210914 | 69 | 197 | 8.0 | 14.0 | 0.00 | 0.00 | 0.00 | 31 | 1023.0 |
| 20260510210409 | 69 | 140 | 10.0 | 13.0 | 0.00 | 0.00 | 0.00 | 31 | 1023.1 |
| 20260510205908 | 67 | 210 | 7.0 | 10.0 | 0.00 | 0.00 | 0.00 | 32 | 1023.3 |
| 20260510205403 | 66 | 131 | 11.0 | 17.0 | 0.00 | 0.00 | 0.00 | 33 | 1023.3 |
| 20260510204859 | 66 | 168 | 7.0 | 11.0 | 0.00 | 0.00 | 0.00 | 33 | 1023.4 |
| 20260510204356 | 67 | 158 | 3.0 | 13.0 | 0.00 | 0.00 | 0.00 | 32 | 1023.0 |
| 20260510203853 | 68 | 122 | 4.0 | 10.0 | 0.00 | 0.00 | 0.00 | 32 | 1023.1 |
| 20260510203351 | 69 | 159 | 6.0 | 13.0 | 0.00 | 0.00 | 0.00 | 31 | 1023.0 |
| 20260510202845 | 69 | 106 | 3.0 | 9.0 | 0.00 | 0.00 | 0.00 | 30 | 1023.0 |
| 20260510202341 | 69 | 92 | 3.0 | 16.0 | 0.00 | 0.00 | 0.00 | 29 | 1022.9 |
| 20260510201838 | 69 | 142 | 4.0 | 11.0 | 0.00 | 0.00 | 0.00 | 29 | 1023.3 |
| 20260510201335 | 71 | 163 | 9.0 | 13.0 | 0.00 | 0.00 | 0.00 | 28 | 1023.0 |
| 20260510200832 | 70 | 126 | 3.0 | 9.0 | 0.00 | 0.00 | 0.00 | 27 | 1022.9 |
| 20260510200330 | 72 | 142 | 5.0 | 10.0 | 0.00 | 0.00 | 0.00 | 26 | 1022.5 |
| 20260510195825 | 74 | 193 | 7.0 | 10.0 | 0.00 | 0.00 | 0.00 | 25 | 1022.5 |
| 20260510195322 | 75 | 153 | 3.0 | 7.0 | 0.00 | 0.00 | 0.00 | 24 | 1022.5 |
| 20260510194817 | 73 | 151 | 5.0 | 11.0 | 0.00 | 0.00 | 0.00 | 25 | 1022.8 |
| 20260510194314 | 73 | 205 | 5.0 | 8.0 | 0.00 | 0.00 | 0.00 | 23 | 1022.5 |
| 20260510193809 | 71 | 119 | 5.0 | 6.0 | 0.00 | 0.00 | 0.00 | 26 | 1022.4 |
| 20260510193304 | 71 | 105 | 4.0 | 7.0 | 0.00 | 0.00 | 0.00 | 26 | 1022.6 |
| 20260510192801 | 70 | 132 | 5.0 | 14.0 | 0.00 | 0.00 | 0.00 | 27 | 1022.6 |
| 20260510192255 | 69 | 149 | 5.0 | 7.0 | 0.00 | 0.00 | 0.00 | 28 | 1022.8 |
| 20260510191752 | 69 | 105 | 7.0 | 9.0 | 0.00 | 0.00 | 0.00 | 27 | 1022.4 |
| 20260510191248 | 69 | 181 | 7.0 | 9.0 | 0.00 | 0.00 | 0.00 | 27 | 1022.5 |
| 20260510190747 | 69 | 92 | 2.0 | 9.0 | 0.00 | 0.00 | 0.00 | 28 | 1022.6 |
| 20260510190243 | 71 | 135 | 4.0 | 11.0 | 0.00 | 0.00 | 0.00 | 27 | 1022.9 |
| 20260510185739 | 71 | 178 | 3.0 | 6.0 | 0.00 | 0.00 | 0.00 | 26 | 1022.5 |
| 20260510185238 | 70 | 138 | 2.0 | 5.0 | 0.00 | 0.00 | 0.00 | 26 | 1022.8 |
| 20260510184734 | 69 | 134 | 6.0 | 9.0 | 0.00 | 0.00 | 0.00 | 28 | 1022.8 |
| 20260510184231 | 68 | 132 | 4.0 | 6.0 | 0.00 | 0.00 | 0.00 | 28 | 1022.9 |
| 20260510183726 | 69 | 62 | 1.0 | 6.0 | 0.00 | 0.00 | 0.00 | 28 | 1022.9 |
| 20260510183221 | 68 | 71 | 2.0 | 3.0 | 0.00 | 0.00 | 0.00 | 29 | 1023.0 |
| 20260510182717 | 67 | 146 | 2.0 | 5.0 | 0.00 | 0.00 | 0.00 | 30 | 1023.1 |
| 20260510182213 | 68 | 65 | 3.0 | 8.0 | 0.00 | 0.00 | 0.00 | 29 | 1023.0 |
| 20260510181710 | 68 | 172 | 2.0 | 3.0 | 0.00 | 0.00 | 0.00 | 29 | 1023.0 |
| 20260510181207 | 68 | 78 | 1.0 | 3.0 | 0.00 | 0.00 | 0.00 | 29 | 1023.3 |
| 20260510180703 | 68 | 157 | 3.0 | 8.0 | 0.00 | 0.00 | 0.00 | 28 | 1023.1 |
| 20260510180201 | 69 | 94 | 2.0 | 5.0 | 0.00 | 0.00 | 0.00 | 28 | 1022.8 |
| 20260510175657 | 70 | 57 | 2.0 | 5.0 | 0.00 | 0.00 | 0.00 | 28 | 1023.0 |
| 20260510175153 | 69 | 51 | 4.0 | 9.0 | 0.00 | 0.00 | 0.00 | 28 | 1022.9 |
| 20260510174650 | 68 | 58 | 1.0 | 9.0 | 0.00 | 0.00 | 0.00 | 30 | 1022.9 |
| 20260510174148 | 65 | 115 | 4.0 | 10.0 | 0.00 | 0.00 | 0.00 | 31 | 1023.1 |
| 20260510173643 | 66 | 156 | 3.0 | 8.0 | 0.00 | 0.00 | 0.00 | 32 | 1023.1 |
| 20260510173139 | 66 | 35 | 3.0 | 8.0 | 0.00 | 0.00 | 0.00 | 32 | 1022.9 |
| 20260510172635 | 67 | 75 | 2.0 | 10.0 | 0.00 | 0.00 | 0.00 | 30 | 1023.0 |
| 20260510172132 | 69 | 124 | 1.0 | 6.0 | 0.00 | 0.00 | 0.00 | 28 | 1022.8 |
| 20260510171628 | 68 | 139 | 4.0 | 7.0 | 0.00 | 0.00 | 0.00 | 28 | 1022.6 |
| 20260510171126 | 67 | 64 | 2.0 | 7.0 | 0.00 | 0.00 | 0.00 | 28 | 1022.6 |
| 20260510170622 | 68 | 139 | 3.0 | 7.0 | 0.00 | 0.00 | 0.00 | 26 | 1022.6 |
| 20260510170119 | 68 | 150 | 2.0 | 6.0 | 0.00 | 0.00 | 0.00 | 26 | 1022.6 |
| 20260510165614 | 70 | 131 | 5.0 | 9.0 | 0.00 | 0.00 | 0.00 | 25 | 1022.5 |
| 20260510165110 | 71 | 102 | 4.0 | 10.0 | 0.00 | 0.00 | 0.00 | 24 | 1022.3 |
| 20260510164608 | 71 | 161 | 2.0 | 10.0 | 0.00 | 0.00 | 0.00 | 24 | 1022.4 |
| 20260510164104 | 71 | 150 | 3.0 | 13.0 | 0.00 | 0.00 | 0.00 | 23 | 1022.4 |
| 20260510163559 | 71 | 118 | 4.0 | 9.0 | 0.00 | 0.00 | 0.00 | 24 | 1022.4 |
| 20260510163056 | 72 | 99 | 2.0 | 11.0 | 0.00 | 0.00 | 0.00 | 23 | 1022.3 |
| 20260510162551 | 71 | 83 | 3.0 | 9.0 | 0.00 | 0.00 | 0.00 | 24 | 1022.3 |
| 20260510162048 | 70 | 128 | 3.0 | 10.0 | 0.00 | 0.00 | 0.00 | 24 | 1022.4 |
| 20260510161543 | 70 | 175 | 2.0 | 15.0 | 0.00 | 0.00 | 0.00 | 26 | 1022.4 |
| 20260510161041 | 70 | 178 | 7.0 | 10.0 | 0.00 | 0.00 | 0.00 | 23 | 1022.1 |
| 20260510160537 | 69 | 175 | 3.0 | 5.0 | 0.00 | 0.00 | 0.00 | 24 | 1022.1 |
| 20260510160037 | 69 | 154 | 3.0 | 9.0 | 0.00 | 0.00 | 0.00 | 25 | 1022.3 |
| 20260510155533 | 70 | 205 | 5.0 | 10.0 | 0.00 | 0.00 | 0.00 | 24 | 1022.1 |
| 20260510155030 | 69 | 151 | 3.0 | 6.0 | 0.00 | 0.00 | 0.00 | 25 | 1021.9 |
| 20260510154525 | 68 | 129 | 3.0 | 8.0 | 0.00 | 0.00 | 0.00 | 26 | 1022.1 |
| 20260510154021 | 68 | 141 | 4.0 | 9.0 | 0.00 | 0.00 | 0.00 | 26 | 1022.0 |
| 20260510153516 | 67 | 109 | 6.0 | 9.0 | 0.00 | 0.00 | 0.00 | 27 | 1022.0 |
| 20260510153013 | 67 | 114 | 2.0 | 7.0 | 0.00 | 0.00 | 0.00 | 25 | 1022.0 |
| 20260510152510 | 67 | 171 | 6.0 | 8.0 | 0.00 | 0.00 | 0.00 | 26 | 1022.1 |
| 20260510152006 | 67 | 167 | 3.0 | 11.0 | 0.00 | 0.00 | 0.00 | 27 | 1022.3 |
| 20260510151503 | 67 | 153 | 4.0 | 9.0 | 0.00 | 0.00 | 0.00 | 27 | 1022.3 |
| 20260510151001 | 67 | 179 | 4.0 | 8.0 | 0.00 | 0.00 | 0.00 | 28 | 1022.0 |
| 20260510150455 | 66 | 38 | 1.0 | 8.0 | 0.00 | 0.00 | 0.00 | 28 | 1022.0 |
| 20260510145952 | 65 | 109 | 3.0 | 8.0 | 0.00 | 0.00 | 0.00 | 28 | 1022.1 |
| 20260510145448 | 65 | 210 | 1.0 | 6.0 | 0.00 | 0.00 | 0.00 | 28 | 1021.9 |
| 20260510144945 | 65 | 156 | 6.0 | 7.0 | 0.00 | 0.00 | 0.00 | 28 | 1022.0 |
| 20260510144442 | 65 | 147 | 5.0 | 8.0 | 0.00 | 0.00 | 0.00 | 28 | 1021.9 |
| 20260510143937 | 65 | 130 | 3.0 | 10.0 | 0.00 | 0.00 | 0.00 | 29 | 1021.5 |
| 20260510143433 | 65 | 146 | 1.0 | 6.0 | 0.00 | 0.00 | 0.00 | 29 | 1021.9 |
| 20260510142931 | 65 | 127 | 3.0 | 8.0 | 0.00 | 0.00 | 0.00 | 29 | 1022.0 |
| 20260510142427 | 64 | 179 | 3.0 | 5.0 | 0.00 | 0.00 | 0.00 | 28 | 1022.0 |
| 20260510141923 | 64 | 161 | 6.0 | 7.0 | 0.00 | 0.00 | 0.00 | 28 | 1021.8 |
| 20260510141420 | 64 | 151 | 5.0 | 6.0 | 0.00 | 0.00 | 0.00 | 28 | 1021.9 |
| 20260510140918 | 64 | 180 | 3.0 | 5.0 | 0.00 | 0.00 | 0.00 | 28 | 1021.8 |
| 20260510140413 | 64 | 139 | 1.0 | 5.0 | 0.00 | 0.00 | 0.00 | 29 | 1021.8 |
| 20260510135907 | 63 | 196 | 2.0 | 2.0 | 0.00 | 0.00 | 0.00 | 29 | 1021.5 |
| 20260510135404 | 62 | 186 | 3.0 | 6.0 | 0.00 | 0.00 | 0.00 | 29 | 1021.7 |
| 20260510134901 | 62 | 160 | 0.0 | 5.0 | 0.00 | 0.00 | 0.00 | 30 | 1021.7 |
| 20260510134357 | 62 | 200 | 1.0 | 2.0 | 0.00 | 0.00 | 0.00 | 29 | 1021.5 |
| 20260510133854 | 62 | 66 | 0.0 | 2.0 | 0.00 | 0.00 | 0.00 | 30 | 1021.9 |
| 20260510133350 | 62 | 158 | 1.0 | 2.0 | 0.00 | 0.00 | 0.00 | 30 | 1021.9 |
| 20260510132845 | 61 | 83 | 0.0 | 1.0 | 0.00 | 0.00 | 0.00 | 30 | 1021.7 |
| 20260510132344 | 60 | 91 | 0.0 | 1.0 | 0.00 | 0.00 | 0.00 | 31 | 1021.7 |
| 20260510131840 | 59 | 44 | 0.0 | 0.0 | 0.00 | 0.00 | 0.00 | 32 | 1021.5 |
| 20260510131338 | 58 | 50 | 1.0 | 1.0 | 0.00 | 0.00 | 0.00 | 34 | 1021.5 |
| 20260510130834 | 57 | 4 | 1.0 | 2.0 | 0.00 | 0.00 | 0.00 | 34 | 1021.2 |
| 20260510130331 | 57 | 357 | 1.0 | 1.0 | 0.00 | 0.00 | 0.00 | 33 | 1021.3 |
| 20260510125828 | 56 | 331 | 1.0 | 2.0 | 0.00 | 0.00 | 0.00 | 34 | 1021.3 |
| 20260510125324 | 56 | 349 | 1.0 | 3.0 | 0.00 | 0.00 | 0.00 | 34 | 1021.2 |
| 20260510124821 | 56 | 17 | 0.0 | 1.0 | 0.00 | 0.00 | 0.00 | 35 | 1021.0 |
| 20260510124318 | 55 | 358 | 1.0 | 2.0 | 0.00 | 0.00 | 0.00 | 35 | 1021.0 |
| 20260510123813 | 56 | 88 | 0.0 | 2.0 | 0.00 | 0.00 | 0.00 | 34 | 1021.0 |
| 20260510123309 | 56 | 87 | 0.0 | 1.0 | 0.00 | 0.00 | 0.00 | 33 | 1020.8 |
| 20260510122806 | 57 | 97 | 0.0 | 2.0 | 0.00 | 0.00 | 0.00 | 33 | 1020.9 |
| 20260510122305 | 57 | 95 | 0.0 | 2.0 | 0.00 | 0.00 | 0.00 | 32 | 1020.8 |
| 20260510121758 | 58 | 118 | 1.0 | 3.0 | 0.00 | 0.00 | 0.00 | 31 | 1020.9 |
| 20260510121256 | 59 | 140 | 1.0 | 3.0 | 0.00 | 0.00 | 0.00 | 30 | 1020.7 |
| 20260510120753 | 58 | 142 | 4.0 | 6.0 | 0.00 | 0.00 | 0.00 | 30 | 1020.7 |
| 20260510120249 | 58 | 128 | 2.0 | 5.0 | 0.00 | 0.00 | 0.00 | 30 | 1020.5 |
| 20260510115745 | 58 | 151 | 1.0 | 1.0 | 0.00 | 0.00 | 0.00 | 30 | 1020.3 |
| 20260510115244 | 58 | 96 | 0.0 | 2.0 | 0.00 | 0.00 | 0.00 | 30 | 1020.2 |
| 20260510114738 | 58 | 139 | 1.0 | 2.0 | 0.00 | 0.00 | 0.00 | 30 | 1020.5 |
| 20260510114236 | 58 | 140 | 1.0 | 1.0 | 0.00 | 0.00 | 0.00 | 30 | 1020.8 |
| 20260510113731 | 59 | 115 | 0.0 | 1.0 | 0.00 | 0.00 | 0.00 | 29 | 1020.3 |
| 20260510113229 | 59 | 99 | 0.0 | 1.0 | 0.00 | 0.00 | 0.00 | 29 | 1020.4 |
| 20260510112725 | 60 | 97 | 0.0 | 1.0 | 0.00 | 0.00 | 0.00 | 28 | 1020.5 |
| 20260510112222 | 60 | 123 | 1.0 | 3.0 | 0.00 | 0.00 | 0.00 | 28 | 1020.4 |
| 20260510111717 | 60 | 225 | 1.0 | 2.0 | 0.00 | 0.00 | 0.00 | 27 | 1020.9 |
| 20260510111214 | 61 | 27 | 0.0 | 2.0 | 0.00 | 0.00 | 0.00 | 27 | 1020.7 |
| 20260510110709 | 61 | 295 | 1.0 | 6.0 | 0.00 | 0.00 | 0.00 | 27 | 1020.9 |
| 20260510110207 | 61 | 257 | 2.0 | 10.0 | 0.00 | 0.00 | 0.00 | 27 | 1021.3 |
| 20260510105707 | 62 | 303 | 5.0 | 11.0 | 0.00 | 0.00 | 0.00 | 27 | 1021.3 |
| 20260510105207 | 62 | 328 | 6.0 | 13.0 | 0.00 | 0.00 | 0.00 | 25 | 1021.4 |
| 20260510104704 | 62 | 289 | 5.0 | 15.0 | 0.00 | 0.00 | 0.00 | 24 | 1020.9 |
| 20260510104201 | 60 | 294 | 2.0 | 5.0 | 0.00 | 0.00 | 0.00 | 24 | 1020.2 |
| 20260510103657 | 60 | 22 | 1.0 | 8.0 | 0.00 | 0.00 | 0.00 | 24 | 1020.3 |
| 20260510103154 | 60 | 12 | 0.0 | 1.0 | 0.00 | 0.00 | 0.00 | 23 | 1020.3 |
| 20260510102654 | 61 | 49 | 0.0 | 1.0 | 0.00 | 0.00 | 0.00 | 23 | 1020.1 |
| 20260510102150 | 61 | 95 | 0.0 | 1.0 | 0.00 | 0.00 | 0.00 | 23 | 1019.7 |
| 20260510101648 | 61 | 60 | 0.0 | 1.0 | 0.00 | 0.00 | 0.00 | 23 | 1019.7 |
| 20260510101146 | 61 | 12 | 0.0 | 1.0 | 0.00 | 0.00 | 0.00 | 23 | 1019.7 |
| 20260510100642 | 61 | 12 | 1.0 | 1.0 | 0.00 | 0.00 | 0.00 | 23 | 1019.6 |
| 20260510100140 | 61 | 10 | 0.0 | 0.0 | 0.00 | 0.00 | 0.00 | 23 | 1019.4 |
| 20260510095635 | 61 | 7 | 0.0 | 2.0 | 0.00 | 0.00 | 0.00 | 23 | 1019.7 |
| 20260510095131 | 62 | 24 | 0.0 | 0.0 | 0.00 | 0.00 | 0.00 | 22 | 1019.6 |
| 20260510094629 | 63 | 20 | 1.0 | 1.0 | 0.00 | 0.00 | 0.00 | 22 | 1019.6 |
| 20260510094125 | 63 | 34 | 0.0 | 2.0 | 0.00 | 0.00 | 0.00 | 21 | 1019.3 |
| 20260510093622 | 63 | 303 | 2.0 | 5.0 | 0.00 | 0.00 | 0.00 | 21 | 1019.2 |
| 20260510093119 | 62 | 3 | 3.0 | 7.0 | 0.00 | 0.00 | 0.00 | 21 | 1019.8 |
| 20260510092615 | 61 | 331 | 3.0 | 5.0 | 0.00 | 0.00 | 0.00 | 22 | 1019.6 |
| 20260510092115 | 61 | 359 | 1.0 | 3.0 | 0.00 | 0.00 | 0.00 | 22 | 1019.3 |
| 20260510091612 | 61 | 49 | 0.0 | 2.0 | 0.00 | 0.00 | 0.00 | 23 | 1019.2 |
| 20260510091108 | 61 | 25 | 0.0 | 2.0 | 0.00 | 0.00 | 0.00 | 22 | 1019.3 |
| 20260510090605 | 60 | 10 | 0.0 | 0.0 | 0.00 | 0.00 | 0.00 | 23 | 1019.4 |
| 20260510090101 | 60 | 12 | 0.0 | 1.0 | 0.00 | 0.00 | 0.00 | 23 | 1019.2 |
| 20260510085556 | 60 | 12 | 0.0 | 1.0 | 0.00 | 0.00 | 0.00 | 23 | 1019.3 |
| 20260510085052 | 60 | 342 | 1.0 | 1.0 | 0.00 | 0.00 | 0.00 | 23 | 1019.3 |
| 20260510084549 | 60 | 16 | 0.0 | 1.0 | 0.00 | 0.00 | 0.00 | 24 | 1019.3 |
| 20260510084045 | 60 | 329 | 1.0 | 2.0 | 0.00 | 0.00 | 0.00 | 24 | 1019.1 |
| 20260510083542 | 60 | 358 | 0.0 | 2.0 | 0.00 | 0.00 | 0.00 | 24 | 1018.9 |
| 20260510083038 | 60 | 275 | 2.0 | 2.0 | 0.00 | 0.00 | 0.00 | 24 | 1018.9 |
| 20260510082535 | 60 | 255 | 1.0 | 2.0 | 0.00 | 0.00 | 0.00 | 23 | 1018.7 |
| 20260510082031 | 60 | 21 | 0.0 | 1.0 | 0.00 | 0.00 | 0.00 | 23 | 1018.6 |
| 20260510081526 | 61 | 27 | 0.0 | 0.0 | 0.00 | 0.00 | 0.00 | 23 | 1018.7 |
| 20260510081022 | 61 | 21 | 0.0 | 1.0 | 0.00 | 0.00 | 0.00 | 22 | 1018.7 |
| 20260510080521 | 61 | 27 | 0.0 | 1.0 | 0.00 | 0.00 | 0.00 | 22 | 1018.7 |
| 20260510080018 | 61 | 19 | 2.0 | 2.0 | 0.00 | 0.00 | 0.00 | 22 | 1018.7 |
| 20260510075515 | 61 | 26 | 0.0 | 2.0 | 0.00 | 0.00 | 0.00 | 22 | 1018.6 |
| 20260510075012 | 61 | 18 | 2.0 | 2.0 | 0.00 | 0.00 | 0.00 | 22 | 1018.3 |
| 20260510074510 | 61 | 27 | 0.0 | 2.0 | 0.00 | 0.00 | 0.00 | 22 | 1018.4 |
| 20260510074005 | 61 | 356 | 1.0 | 2.0 | 0.00 | 0.00 | 0.00 | 22 | 1018.4 |
| 20260510073501 | 61 | 8 | 2.0 | 3.0 | 0.00 | 0.00 | 0.00 | 22 | 1018.3 |
| 20260510072958 | 61 | 21 | 0.0 | 2.0 | 0.00 | 0.00 | 0.00 | 22 | 1018.6 |
| 20260510072455 | 61 | 37 | 0.0 | 3.0 | 0.00 | 0.00 | 0.00 | 22 | 1018.7 |
| 20260510071950 | 61 | 30 | 1.0 | 3.0 | 0.00 | 0.00 | 0.00 | 21 | 1018.4 |
| 20260510071447 | 61 | 19 | 0.0 | 1.0 | 0.00 | 0.00 | 0.00 | 21 | 1018.4 |
| 20260510070945 | 61 | 11 | 1.0 | 1.0 | 0.00 | 0.00 | 0.00 | 21 | 1018.4 |
| 20260510070442 | 61 | 26 | 1.0 | 2.0 | 0.00 | 0.00 | 0.00 | 21 | 1018.6 |
| 20260510065937 | 61 | 23 | 0.0 | 1.0 | 0.00 | 0.00 | 0.00 | 21 | 1018.4 |
| 20260510065435 | 62 | 22 | 0.0 | 1.0 | 0.00 | 0.00 | 0.00 | 21 | 1018.2 |
| 20260510064930 | 62 | 30 | 0.0 | 1.0 | 0.00 | 0.00 | 0.00 | 21 | 1018.2 |
| 20260510064428 | 62 | 33 | 2.0 | 3.0 | 0.00 | 0.00 | 0.00 | 21 | 1018.4 |
| 20260510063925 | 62 | 34 | 0.0 | 1.0 | 0.00 | 0.00 | 0.00 | 21 | 1018.1 |
| 20260510063421 | 63 | 16 | 1.0 | 3.0 | 0.00 | 0.00 | 0.00 | 21 | 1018.1 |
| 20260510062919 | 63 | 4 | 2.0 | 2.0 | 0.00 | 0.00 | 0.00 | 21 | 1018.2 |
| 20260510062414 | 63 | 35 | 0.0 | 6.0 | 0.00 | 0.00 | 0.00 | 20 | 1018.3 |
| 20260510061909 | 62 | 3 | 2.0 | 6.0 | 0.00 | 0.00 | 0.00 | 20 | 1018.1 |
| 20260510061406 | 62 | 23 | 2.0 | 6.0 | 0.00 | 0.00 | 0.00 | 20 | 1017.7 |
| 20260510060902 | 62 | 41 | 1.0 | 7.0 | 0.00 | 0.00 | 0.00 | 20 | 1018.0 |
| 20260510060359 | 63 | 24 | 2.0 | 7.0 | 0.00 | 0.00 | 0.00 | 19 | 1018.0 |
| 20260510055856 | 64 | 17 | 1.0 | 3.0 | 0.00 | 0.00 | 0.00 | 19 | 1018.0 |
| 20260510055355 | 63 | 40 | 0.0 | 7.0 | 0.00 | 0.00 | 0.00 | 18 | 1017.7 |
| 20260510054849 | 63 | 357 | 1.0 | 6.0 | 0.00 | 0.00 | 0.00 | 18 | 1017.7 |
| 20260510054344 | 63 | 2 | 2.0 | 3.0 | 0.00 | 0.00 | 0.00 | 18 | 1017.8 |
| 20260510053839 | 63 | 25 | 0.0 | 2.0 | 0.00 | 0.00 | 0.00 | 18 | 1017.7 |
| 20260510053335 | 63 | 8 | 1.0 | 2.0 | 0.00 | 0.00 | 0.00 | 18 | 1017.7 |
| 20260510052832 | 63 | 12 | 1.0 | 2.0 | 0.00 | 0.00 | 0.00 | 17 | 1017.7 |
| 20260510052327 | 64 | 26 | 0.0 | 1.0 | 0.00 | 0.00 | 0.00 | 17 | 1017.7 |
| 20260510051824 | 64 | 38 | 0.0 | 2.0 | 0.00 | 0.00 | 0.00 | 17 | 1017.7 |
| 20260510051321 | 64 | 12 | 1.0 | 2.0 | 0.00 | 0.00 | 0.00 | 17 | 1017.7 |
| 20260510050818 | 64 | 31 | 0.0 | 3.0 | 0.00 | 0.00 | 0.00 | 16 | 1017.7 |
| 20260510050314 | 65 | 30 | 1.0 | 3.0 | 0.00 | 0.00 | 0.00 | 16 | 1017.5 |
| 20260510045811 | 65 | 28 | 2.0 | 3.0 | 0.00 | 0.00 | 0.00 | 16 | 1017.3 |
| 20260510045308 | 65 | 25 | 2.0 | 3.0 | 0.00 | 0.00 | 0.00 | 16 | 1017.5 |
| 20260510044805 | 65 | 48 | 1.0 | 3.0 | 0.00 | 0.00 | 0.00 | 16 | 1017.7 |
| 20260510044301 | 65 | 35 | 1.0 | 2.0 | 0.00 | 0.00 | 0.00 | 16 | 1017.6 |
| 20260510043757 | 65 | 37 | 1.0 | 5.0 | 0.00 | 0.00 | 0.00 | 16 | 1017.5 |
| 20260510043249 | 66 | 18 | 1.0 | 6.0 | 0.00 | 0.00 | 0.00 | 15 | 1017.7 |
| 20260510042746 | 66 | 39 | 0.0 | 5.0 | 0.00 | 0.00 | 0.00 | 15 | 1017.2 |
| 20260510042241 | 67 | 36 | 0.0 | 3.0 | 0.00 | 0.00 | 0.00 | 15 | 1017.5 |
| 20260510041739 | 67 | 25 | 2.0 | 3.0 | 0.00 | 0.00 | 0.00 | 15 | 1017.5 |
| 20260510041236 | 66 | 10 | 3.0 | 5.0 | 0.00 | 0.00 | 0.00 | 15 | 1017.6 |
| 20260510040733 | 66 | 348 | 3.0 | 6.0 | 0.00 | 0.00 | 0.00 | 15 | 1017.6 |
| 20260510040230 | 65 | 40 | 0.0 | 2.0 | 0.00 | 0.00 | 0.00 | 17 | 1017.5 |
| 20260510035725 | 66 | 28 | 1.0 | 2.0 | 0.00 | 0.00 | 0.00 | 17 | 1017.5 |
| 20260510035221 | 66 | 304 | 3.0 | 3.0 | 0.00 | 0.00 | 0.00 | 17 | 1017.2 |
| 20260510034717 | 66 | 316 | 1.0 | 3.0 | 0.00 | 0.00 | 0.00 | 17 | 1017.3 |
| 20260510034216 | 66 | 3 | 3.0 | 5.0 | 0.00 | 0.00 | 0.00 | 17 | 1017.2 |
| 20260510033711 | 67 | 17 | 0.0 | 1.0 | 0.00 | 0.00 | 0.00 | 17 | 1017.6 |
| 20260510033209 | 68 | 24 | 0.0 | 1.0 | 0.00 | 0.00 | 0.00 | 16 | 1017.1 |
| 20260510032705 | 68 | 39 | 0.0 | 0.0 | 0.00 | 0.00 | 0.00 | 16 | 1017.2 |
| 20260510032201 | 69 | 28 | 1.0 | 3.0 | 0.00 | 0.00 | 0.00 | 16 | 1017.3 |
| 20260510031655 | 69 | 17 | 3.0 | 3.0 | 0.00 | 0.00 | 0.00 | 16 | 1017.5 |
| 20260510031152 | 69 | 52 | 0.0 | 1.0 | 0.00 | 0.00 | 0.00 | 16 | 1017.1 |
| 20260510030646 | 68 | 312 | 2.0 | 3.0 | 0.00 | 0.00 | 0.00 | 16 | 1017.5 |
| 20260510030144 | 69 | 18 | 0.0 | 2.0 | 0.00 | 0.00 | 0.00 | 16 | 1017.1 |
| 20260510025641 | 69 | 19 | 0.0 | 1.0 | 0.00 | 0.00 | 0.00 | 16 | 1017.0 |
| 20260510025139 | 69 | 23 | 0.0 | 1.0 | 0.00 | 0.00 | 0.00 | 16 | 1017.1 |
| 20260510024635 | 69 | 6 | 1.0 | 5.0 | 0.00 | 0.00 | 0.00 | 16 | 1016.7 |
| 20260510024132 | 69 | 25 | 3.0 | 5.0 | 0.00 | 0.00 | 0.00 | 16 | 1017.0 |
| 20260510023628 | 70 | 305 | 3.0 | 7.0 | 0.00 | 0.00 | 0.00 | 16 | 1016.8 |
| 20260510023126 | 70 | 45 | 2.0 | 10.0 | 0.00 | 0.00 | 0.00 | 16 | 1016.8 |
| 20260510022625 | 70 | 272 | 3.0 | 7.0 | 0.00 | 0.00 | 0.00 | 16 | 1016.5 |
| 20260510022120 | 68 | 353 | 2.0 | 8.0 | 0.00 | 0.00 | 0.00 | 16 | 1016.6 |
| 20260510021616 | 68 | 6 | 1.0 | 5.0 | 0.00 | 0.00 | 0.00 | 17 | 1016.8 |
| 20260510021114 | 69 | 35 | 0.0 | 0.0 | 0.00 | 0.00 | 0.00 | 17 | 1016.6 |
| 20260510020608 | 70 | 41 | 0.0 | 0.0 | 0.00 | 0.00 | 0.00 | 17 | 1016.5 |
| 20260510020103 | 70 | 41 | 0.0 | 0.0 | 0.00 | 0.00 | 0.00 | 16 | 1016.2 |
| 20260510015600 | 70 | 14 | 2.0 | 9.0 | 0.00 | 0.00 | 0.00 | 16 | 1016.0 |
| 20260510015056 | 70 | 18 | 3.0 | 6.0 | 0.00 | 0.00 | 0.00 | 15 | 1016.4 |
| 20260510014552 | 71 | 0 | 2.0 | 2.0 | 0.00 | 0.00 | 0.00 | 15 | 1016.5 |
| 20260510014050 | 71 | 19 | 1.0 | 6.0 | 0.00 | 0.00 | 0.00 | 15 | 1016.1 |
| 20260510013549 | 71 | 0 | 2.0 | 3.0 | 0.00 | 0.00 | 0.00 | 14 | 1016.2 |
| 20260510013046 | 71 | 27 | 1.0 | 3.0 | 0.00 | 0.00 | 0.00 | 14 | 1016.1 |
| 20260510012539 | 71 | 344 | 2.0 | 5.0 | 0.00 | 0.00 | 0.00 | 14 | 1016.1 |
| 20260510012037 | 72 | 70 | 1.0 | 6.0 | 0.00 | 0.00 | 0.00 | 14 | 1015.9 |
| 20260510011536 | 72 | 343 | 4.0 | 14.0 | 0.00 | 0.00 | 0.00 | 14 | 1016.1 |
| 20260510011032 | 72 | 0 | 1.0 | 8.0 | 0.00 | 0.00 | 0.00 | 13 | 1015.6 |
| 20260510010529 | 72 | 292 | 2.0 | 7.0 | 0.00 | 0.00 | 0.00 | 13 | 1015.7 |
| 20260510010026 | 73 | 313 | 1.0 | 1.0 | 0.00 | 0.00 | 0.00 | 13 | 1016.0 |
| 20260510005521 | 73 | 29 | 1.0 | 3.0 | 0.00 | 0.00 | 0.00 | 13 | 1015.5 |
| 20260510005020 | 73 | 207 | 4.0 | 8.0 | 0.00 | 0.00 | 0.00 | 13 | 1015.6 |
| 20260510004517 | 74 | 275 | 2.0 | 3.0 | 0.00 | 0.00 | 0.00 | 13 | 1015.5 |
| 20260510004015 | 74 | 252 | 4.0 | 14.0 | 0.00 | 0.00 | 0.00 | 12 | 1015.6 |
| 20260510003511 | 75 | 163 | 1.0 | 7.0 | 0.00 | 0.00 | 0.00 | 13 | 1015.5 |
| 20260510003007 | 74 | 192 | 2.0 | 5.0 | 0.00 | 0.00 | 0.00 | 12 | 1015.7 |
| 20260510002503 | 74 | 312 | 3.0 | 14.0 | 0.00 | 0.00 | 0.00 | 12 | 1015.5 |
| 20260510001959 | 75 | 22 | 0.0 | 5.0 | 0.00 | 0.00 | 0.00 | 11 | 1015.5 |
| 20260510001457 | 75 | 19 | 3.0 | 3.0 | 0.00 | 0.00 | 0.00 | 11 | 1015.6 |
| 20260510000955 | 75 | 39 | 0.0 | 6.0 | 0.00 | 0.00 | 0.00 | 12 | 1015.5 |
| 20260510000450 | 74 | 304 | 4.0 | 6.0 | 0.00 | 0.00 | 0.00 | 11 | 1015.4 |
| 20260509235947 | 74 | 17 | 2.0 | 8.0 | 0.00 | 0.00 | 0.00 | 11 | 1015.5 |
| 20260509235444 | 75 | 26 | 0.0 | 5.0 | 0.00 | 0.00 | 0.00 | 11 | 1015.5 |
| 20260509234940 | 75 | 352 | 2.0 | 7.0 | 0.00 | 0.00 | 0.00 | 11 | 1015.6 |
| 20260509234437 | 77 | 17 | 3.0 | 8.0 | 0.00 | 0.00 | 0.00 | 10 | 1016.0 |
| 20260509233935 | 79 | 29 | 6.0 | 9.0 | 0.00 | 0.00 | 0.00 | 10 | 1015.7 |
| 20260509233432 | 79 | 140 | 5.0 | 9.0 | 0.00 | 0.00 | 0.00 | 10 | 1015.6 |
| 20260509232928 | 78 | 12 | 3.0 | 8.0 | 0.00 | 0.00 | 0.00 | 10 | 1015.4 |
| 20260509232426 | 78 | 292 | 3.0 | 9.0 | 0.00 | 0.00 | 0.00 | 10 | 1015.7 |
| 20260509231921 | 78 | 18 | 1.0 | 5.0 | 0.00 | 0.00 | 0.00 | 10 | 1015.6 |
| 20260509231418 | 77 | 351 | 5.0 | 9.0 | 0.00 | 0.00 | 0.00 | 10 | 1016.1 |
| 20260509230916 | 78 | 334 | 2.0 | 8.0 | 0.00 | 0.00 | 0.00 | 10 | 1015.5 |
| 20260509230413 | 77 | 24 | 1.0 | 2.0 | 0.00 | 0.00 | 0.00 | 10 | 1015.9 |
| 20260509225909 | 76 | 300 | 2.0 | 3.0 | 0.00 | 0.00 | 0.00 | 11 | 1015.9 |
| 20260509225406 | 78 | 273 | 2.0 | 9.0 | 0.00 | 0.00 | 0.00 | 10 | 1016.1 |
| 20260509224902 | 80 | 359 | 2.0 | 8.0 | 0.00 | 0.00 | 0.00 | 10 | 1015.7 |
| 20260509224357 | 79 | 17 | 1.0 | 3.0 | 0.00 | 0.00 | 0.00 | 10 | 1015.9 |
| 20260509223855 | 78 | 325 | 3.0 | 8.0 | 0.00 | 0.00 | 0.00 | 10 | 1015.9 |
| 20260509223351 | 79 | 279 | 3.0 | 11.0 | 0.00 | 0.00 | 0.00 | 10 | 1016.0 |
| 20260509222848 | 79 | 56 | 3.0 | 8.0 | 0.00 | 0.00 | 0.00 | 10 | 1016.1 |
| 20260509222343 | 79 | 37 | 5.0 | 10.0 | 0.00 | 0.00 | 0.00 | 10 | 1016.1 |
| 20260509221838 | 79 | 28 | 3.0 | 8.0 | 0.00 | 0.00 | 0.00 | 10 | 1016.5 |
| 20260509221336 | 80 | 319 | 8.0 | 11.0 | 0.00 | 0.00 | 0.00 | 9 | 1016.0 |
| 20260509220831 | 80 | 317 | 1.0 | 9.0 | 0.00 | 0.00 | 0.00 | 10 | 1016.1 |